Latest Weather Observations for Lady Elliot Island

IDQ60801

Issued at 12:02 pm EST Monday 25 July 2016 (issued every 30 minutes, with the page automatically refreshed every 10 minutes)

About weather observations | Map of weather stations | Latest weather observations for QLD | Other Formats
Station Details ID: 039059 Name: LADY ELLIOT ISLAND Lat: -24.11 Lon: 152.72 Height: 3.6 m
Data from the previous 72 hours. | See also: Recent months at Lady Elliot Island
Date/Time
EST
Temp
°C
App
Temp
°C
Dew
Point
°C
Rel
Hum
%
Delta-T
°C
Wind Press
QNH
hPa
Press
MSL
hPa
Rain since
9am
mm
Dir  Spd
km/h
Gust
km/h
Spd
kts
Gust
kts
25/12:00pm 21.7 17.5 12.5 56 5.2 SSW 26 35 14 19 1017.3 1017.3 0.0
25/11:30am 21.6 17.7 13.2 59 4.8 S 26 39 14 21 1017.6 1017.6 0.0
25/11:00am 21.4 18.0 13.6 61 4.5 S 24 33 13 18 1018.0 1018.0 0.0
25/10:30am 21.1 16.8 14.3 65 4.0 SSW 30 37 16 20 1018.3 1018.3 0.0
25/10:00am 20.7 16.3 14.1 66 3.8 SSW 30 39 16 21 1018.3 1018.3 0.0
25/09:30am 20.2 16.2 14.1 68 3.5 SSW 28 39 15 21 1018.4 1018.4 0.0
25/09:00am 20.1 17.4 14.5 70 3.3 SSW 22 35 12 19 1018.3 1018.3 0.8
25/08:30am 19.8 18.6 16.1 79 2.2 SSW 17 26 9 14 1018.0 1018.0 0.8
25/08:00am 19.9 19.0 17.7 87 1.3 SW 19 28 10 15 1017.7 1017.7 0.8
25/07:30am 20.9 21.6 19.7 93 0.8 SW 15 24 8 13 1017.4 1017.4 0.8
25/07:00am 21.3 22.9 19.9 92 0.9 WSW 11 19 6 10 1017.0 1017.0 0.8
25/06:30am 21.7 22.9 20.0 90 1.1 WNW 13 20 7 11 1016.6 1016.6 0.0
25/06:00am 21.8 22.7 20.1 90 1.1 WNW 15 19 8 10 1016.2 1016.2 0.0
25/05:30am 21.6 22.4 19.9 90 1.1 NW 15 20 8 11 1015.7 1015.7 0.0
25/05:00am 21.5 22.4 20.0 91 1.0 NW 15 20 8 11 1015.4 1015.4 0.0
25/04:30am 21.6 22.1 20.1 91 1.0 WNW 17 22 9 12 1015.1 1015.1 0.0
25/04:00am 21.6 21.8 20.1 91 1.0 WNW 19 24 10 13 1014.9 1014.9 0.0
25/03:30am 21.6 22.0 19.9 90 1.1 NW 17 24 9 13 1015.0 1015.0 0.0
25/03:00am 21.7 22.9 20.0 90 1.1 NW 13 20 7 11 1015.0 1015.0 0.0
25/02:30am 21.8 23.2 20.4 92 0.9 NW 13 19 7 10 1015.0 1015.0 0.0
25/02:00am 21.8 23.2 20.3 91 1.0 NW 13 20 7 11 1015.1 1015.1 0.0
25/01:30am 21.8 22.7 20.1 90 1.1 NW 15 22 8 12 1015.0 1015.0 0.0
25/01:00am 21.8 23.2 20.3 91 1.0 NNW 13 20 7 11 1015.2 1015.2 0.0
25/12:30am 21.8 23.2 20.3 91 1.0 NW 13 22 7 12 1015.5 1015.5 0.0
25/12:00am 21.8 23.6 20.3 91 1.0 NW 11 17 6 9 1015.5 1015.5 0.0
 
Date/Time
EST
Temp
°C
App
Temp
°C
Dew
Point
°C
Rel
Hum
%
Delta-T
°C
Wind Press
QNH
hPa
Press
MSL
hPa
Rain since
9am
mm
Dir  Spd
km/h
Gust
km/h
Spd
kts
Gust
kts
24/11:30pm 21.8 23.5 20.1 90 1.1 NW 11 17 6 9 1015.6 1015.6 0.0
24/11:00pm 21.8 23.5 20.1 90 1.1 NNW 11 20 6 11 1015.8 1015.8 0.0
24/10:30pm 21.7 23.7 20.0 90 1.1 NW 9 13 5 7 1016.0 1016.0 0.0
24/10:00pm 21.6 23.3 20.1 91 1.0 NNW 11 13 6 7 1015.8 1015.8 0.0
24/09:30pm 21.3 22.7 19.6 90 1.1 NNW 11 15 6 8 1015.8 1015.8 0.0
24/09:00pm 21.2 22.4 19.1 88 1.3 N 11 13 6 7 1015.5 1015.5 0.0
24/08:30pm 21.2 22.7 18.9 87 1.4 N 9 13 5 7 1015.4 1015.4 0.0
24/08:00pm 21.2 23.0 18.8 86 1.5 N 7 13 4 7 1015.4 1015.4 0.0
24/07:30pm 21.3 22.7 18.7 85 1.6 N 9 13 5 7 1015.0 1015.0 0.0
24/07:00pm 21.1 22.5 18.7 86 1.5 N 9 13 5 7 1014.7 1014.7 0.0
24/06:30pm 20.7 22.3 18.3 86 1.5 NNE 7 11 4 6 1014.5 1014.5 0.0
24/06:00pm 20.5 22.9 17.9 85 1.6 NE 2 7 1 4 1014.3 1014.3 0.0
24/05:30pm 20.7 23.2 17.3 81 2.1 CALM 0 6 0 3 1013.9 1013.9 0.0
24/05:00pm 21.2 22.6 17.4 79 2.3 ENE 6 7 3 4 1013.8 1013.8 0.0
24/04:30pm 21.8 23.4 17.8 78 2.5 ESE 6 7 3 4 1013.7 1013.7 0.0
24/04:00pm 21.9 23.2 17.5 76 2.7 SE 7 9 4 5 1013.7 1013.7 0.0
24/03:30pm 22.1 23.4 17.5 75 2.8 SE 7 11 4 6 1013.4 1013.4 0.0
24/03:00pm 22.5 23.5 17.8 75 2.9 ESE 9 11 5 6 1013.5 1013.5 0.0
24/02:30pm 22.3 22.8 17.4 74 3.0 SE 11 13 6 7 1013.7 1013.7 0.0
24/02:00pm 22.4 22.7 17.1 72 3.3 SSE 11 15 6 8 1014.1 1014.1 0.0
24/01:30pm 22.4 22.7 17.1 72 3.3 SSE 11 15 6 8 1014.3 1014.3 0.0
24/01:00pm 21.7 21.2 16.0 70 3.4 SSE 13 17 7 9 1014.7 1014.7 0.0
24/12:30pm 22.5 22.5 17.2 72 3.3 SSE 13 17 7 9 1015.1 1015.1 0.0
24/12:00pm 22.6 22.9 17.1 71 3.4 SSE 11 15 6 8 1015.7 1015.7 0.0
24/11:30am 22.4 21.6 16.2 68 3.8 S 15 22 8 12 1016.3 1016.3 0.0
24/11:00am 22.1 21.1 15.7 67 3.8 S 15 19 8 10 1016.5 1016.5 0.0
24/10:30am 22.0 21.4 15.6 67 3.8 S 13 17 7 9 1016.7 1016.7 0.0
24/10:00am 21.3 20.2 15.2 68 3.6 S 15 20 8 11 1017.0 1017.0 0.0
24/09:30am 21.6 20.7 15.9 70 3.4 S 15 20 8 11 1017.1 1017.1 0.0
24/09:00am 21.5 21.0 16.0 71 3.3 S 13 20 7 11 1016.7 1016.7 0.0
24/08:30am 21.1 20.3 16.1 73 3.0 S 15 22 8 12 1016.6 1016.6 0.0
24/08:00am 20.8 20.0 16.2 75 2.8 S 15 22 8 12 1016.3 1016.3 0.0
24/07:30am 20.2 18.6 15.0 72 3.1 S 17 26 9 14 1016.2 1016.2 0.0
24/07:00am 20.4 18.9 15.4 73 3.0 S 17 24 9 13 1015.8 1015.8 0.0
24/06:30am 20.3 20.0 17.3 83 1.8 SSW 15 20 8 11 1015.3 1015.3 0.0
24/06:00am 21.4 22.6 19.9 91 1.0 SW 13 20 7 11 1014.8 1014.8 0.0
24/05:30am 21.7 23.6 20.5 93 0.8 W 11 19 6 10 1014.6 1014.6 0.0
24/05:00am 21.7 23.3 20.7 94 0.6 WNW 13 17 7 9 1014.1 1014.1 0.0
24/04:30am 21.6 23.1 20.6 94 0.6 NW 13 20 7 11 1013.4 1013.4 0.0
24/04:00am 21.7 23.2 20.5 93 0.8 NW 13 17 7 9 1013.3 1013.3 0.0
24/03:30am 21.6 23.4 20.4 93 0.8 NW 11 15 6 8 1013.3 1013.3 0.0
24/03:00am 21.7 23.1 20.3 92 0.9 NW 13 20 7 11 1013.1 1013.1 0.0
24/02:30am 21.8 23.6 20.4 92 0.9 NW 11 19 6 10 1013.0 1013.0 0.0
24/02:00am 21.8 23.2 20.4 92 0.9 NW 13 20 7 11 1013.0 1013.0 0.0
24/01:30am 21.9 22.6 20.4 91 1.0 NW 17 20 9 11 1013.1 1013.1 0.0
24/01:00am 21.9 23.0 20.4 91 1.0 NW 15 26 8 14 1013.4 1013.4 0.0
24/12:30am 22.0 23.4 20.3 90 1.1 NW 13 20 7 11 1013.5 1013.5 0.0
24/12:00am 22.0 22.9 20.1 89 1.2 NW 15 22 8 12 1013.5 1013.5 0.0
 
Date/Time
EST
Temp
°C
App
Temp
°C
Dew
Point
°C
Rel
Hum
%
Delta-T
°C
Wind Press
QNH
hPa
Press
MSL
hPa
Rain since
9am
mm
Dir  Spd
km/h
Gust
km/h
Spd
kts
Gust
kts
23/11:30pm 22.0 22.9 20.1 89 1.2 NW 15 26 8 14 1013.6 1013.6 0.0
23/11:00pm 22.2 22.8 20.3 89 1.2 NW 17 26 9 14 1013.6 1013.6 0.0
23/10:30pm 22.3 22.4 20.4 89 1.2 NNW 20 28 11 15 1013.5 1013.5 0.0
23/10:00pm 22.1 22.7 20.2 89 1.2 NW 17 28 9 15 1013.5 1013.5 0.0
23/09:30pm 22.1 22.3 20.2 89 1.2 NW 19 30 10 16 1013.4 1013.4 0.0
23/09:00pm 22.1 22.1 20.2 89 1.2 NNW 20 32 11 17 1013.2 1013.2 0.0
23/08:30pm 22.1 22.1 20.2 89 1.2 NNW 20 32 11 17 1012.9 1012.9 0.0
23/08:00pm 22.1 22.1 20.2 89 1.2 NNW 20 32 11 17 1012.7 1012.7 0.0
23/07:30pm 22.1 22.1 20.2 89 1.2 NNW 20 30 11 16 1012.4 1012.4 0.0
23/07:00pm 22.0 22.0 20.1 89 1.2 NNW 20 32 11 17 1012.3 1012.3 0.0
23/06:30pm 21.9 22.1 20.2 90 1.1 NW 19 28 10 15 1012.0 1012.0 0.0
23/06:00pm 22.0 22.1 20.3 90 1.1 NW 20 33 11 18 1011.8 1011.8 0.0
23/05:30pm 22.0 22.1 20.3 90 1.1 NW 20 32 11 17 1011.8 1011.8 0.0
23/05:00pm 22.3 21.9 20.2 88 1.4 NW 22 33 12 18 1011.6 1011.6 0.0
23/04:30pm 22.6 22.7 20.3 87 1.5 NW 20 32 11 17 1011.7 1011.7 0.0
23/04:00pm 22.8 22.1 20.3 86 1.6 NW 24 39 13 21 1011.7 1011.7 0.0
23/03:30pm 23.1 23.2 20.4 85 1.7 NW 20 35 11 19 1011.7 1011.7 0.0
23/03:00pm 23.4 22.8 20.5 84 1.9 NW 24 37 13 20 1011.7 1011.7 0.0
23/02:30pm 23.8 23.8 20.9 84 1.9 NW 22 39 12 21 1011.6 1011.6 0.0
23/02:00pm 23.7 23.2 20.8 84 1.9 NW 24 35 13 19 1011.8 1011.8 0.0
23/01:30pm 23.6 23.4 20.5 83 2.0 NW 22 32 12 17 1011.9 1011.9 0.0
23/01:00pm 23.7 23.9 20.6 83 2.0 NW 20 32 11 17 1012.1 1012.1 0.0
23/12:30pm 23.8 23.7 20.7 83 2.0 NW 22 32 12 17 1012.7 1012.7 0.0
23/12:00pm 23.5 23.3 20.6 84 1.9 NW 22 35 12 19 1013.0 1013.0 0.0
23/11:30am 24.0 24.3 20.7 82 2.2 NW 20 32 11 17 1013.5 1013.5 0.0
23/11:00am 23.7 23.9 20.6 83 2.0 NW 20 32 11 17 1013.9 1013.9 0.0
23/10:30am 23.7 23.8 20.4 82 2.1 NW 20 35 11 19 1014.2 1014.2 0.0
23/10:00am 23.7 23.9 20.6 83 2.0 NW 20 32 11 17 1014.6 1014.6 0.0
23/09:30am 23.2 23.2 20.2 83 1.9 NW 20 30 11 16 1014.9 1014.9 0.0
23/09:00am 23.0 23.0 20.1 84 1.9 NW 20 32 11 17 1015.0 1015.0 0.0
23/08:30am 22.6 22.8 20.1 86 1.6 NW 19 30 10 16 1014.8 1014.8 0.0
23/08:00am 22.5 22.6 19.9 85 1.7 NW 19 30 10 16 1014.7 1014.7 0.0
23/07:30am 22.2 22.1 19.6 85 1.7 NW 19 32 10 17 1014.6 1014.6 0.0
23/07:00am 22.0 22.0 19.7 87 1.5 NW 19 28 10 15 1014.3 1014.3 0.0
23/06:30am 21.8 22.1 19.5 87 1.5 NW 17 26 9 14 1014.1 1014.1 0.0
23/06:00am 21.7 21.9 19.4 87 1.5 NW 17 26 9 14 1013.9 1013.9 0.0
23/05:30am 21.8 22.1 19.7 88 1.3 NW 17 24 9 13 1013.5 1013.5 0.0
23/05:00am 21.9 22.3 19.8 88 1.3 NW 17 28 9 15 1013.4 1013.4 0.0
23/04:30am 21.9 21.6 19.5 86 1.5 NNW 20 30 11 16 1013.1 1013.1 0.0
23/04:00am 21.9 21.8 19.5 86 1.5 NW 19 30 10 16 1013.0 1013.0 0.0
23/03:30am 21.9 21.8 19.5 86 1.5 NNW 19 30 10 16 1013.0 1013.0 0.0
23/03:00am 21.9 21.8 19.6 87 1.5 NNW 19 28 10 15 1013.2 1013.2 0.0
23/02:30am 21.9 22.2 19.6 87 1.5 NNW 17 28 9 15 1013.2 1013.2 0.0
23/02:00am 21.9 21.8 19.5 86 1.5 NNW 19 28 10 15 1013.5 1013.5 0.0
23/01:30am 22.0 21.7 19.5 86 1.6 NNW 20 30 11 16 1013.7 1013.7 0.0
23/01:00am 22.1 21.0 19.5 85 1.7 NNW 24 32 13 17 1013.9 1013.9 0.0
23/12:30am 22.1 21.7 19.3 84 1.8 NNW 20 30 11 16 1014.1 1014.1 0.0
23/12:00am 22.1 21.2 19.1 83 1.9 NNW 22 30 12 16 1014.3 1014.3 0.0
 
Date/Time
EST
Temp
°C
App
Temp
°C
Dew
Point
°C
Rel
Hum
%
Delta-T
°C
Wind Press
QNH
hPa
Press
MSL
hPa
Rain since
9am
mm
Dir  Spd
km/h
Gust
km/h
Spd
kts
Gust
kts
22/11:30pm 22.1 21.6 19.1 83 1.9 NNW 20 28 11 15 1014.3 1014.3 0.0
22/11:00pm 22.0 21.5 19.0 83 1.9 NNW 20 28 11 15 1014.4 1014.4 0.0
22/10:30pm 21.9 21.3 18.9 83 1.9 NNW 20 26 11 14 1014.5 1014.5 0.0
22/10:00pm 21.8 21.3 19.0 84 1.8 NNW 20 28 11 15 1014.7 1014.7 0.0
22/09:30pm 21.9 21.5 19.3 85 1.7 NNW 20 28 11 15 1014.9 1014.9 0.0
22/09:00pm 21.8 21.3 19.0 84 1.8 NNW 20 26 11 14 1014.9 1014.9 0.0
22/08:30pm 21.8 21.4 19.4 86 1.5 NNW 20 26 11 14 1014.9 1014.9 0.0
22/08:00pm 21.7 21.5 19.3 86 1.5 NNW 19 26 10 14 1015.0 1015.0 0.0
22/07:30pm 21.6 21.3 19.2 86 1.5 NNW 19 24 10 13 1015.0 1015.0 0.0
22/07:00pm 21.5 21.7 19.4 88 1.3 NNW 17 22 9 12 1014.8 1014.8 0.0
22/06:30pm 21.5 22.4 19.2 87 1.5 NNW 13 20 7 11 1014.7 1014.7 0.0
22/06:00pm 21.4 22.2 19.0 86 1.5 NNW 13 20 7 11 1014.4 1014.4 0.0
22/05:30pm 21.5 22.3 19.1 86 1.5 NNW 13 19 7 10 1014.3 1014.3 0.0
22/05:00pm 22.0 22.8 19.0 83 1.9 NNW 13 19 7 10 1014.2 1014.2 0.0
22/04:30pm 22.5 23.2 18.9 80 2.3 NNW 13 19 7 10 1014.0 1014.0 0.0
22/04:00pm 22.8 24.0 19.0 79 2.4 NNW 11 17 6 9 1014.0 1014.0 0.0
22/03:30pm 23.5 24.9 19.6 79 2.5 NNW 11 17 6 9 1014.1 1014.1 0.0
22/03:00pm 23.7 25.1 19.6 78 2.6 NNW 11 15 6 8 1014.2 1014.2 0.0
22/02:30pm 23.7 25.4 19.4 77 2.7 NW 9 13 5 7 1014.2 1014.2 0.0
22/02:00pm 23.9 25.7 19.6 77 2.8 NNW 9 13 5 7 1014.4 1014.4 0.0
22/01:30pm 23.8 25.7 19.7 78 2.6 NW 9 11 5 6 1014.7 1014.7 0.0
22/01:00pm 23.7 25.5 19.6 78 2.6 WNW 9 13 5 7 1015.0 1015.0 0.0
22/12:30pm 23.7 25.0 19.4 77 2.7 WNW 11 13 6 7 1015.6 1015.6 0.0

Other Formats:

Comma delimited format used in spreadsheet applications
http://www.bom.gov.au/fwo/IDQ60801/IDQ60801.94388.axf

JavaScript Object Notation format (JSON) in row-major order
http://www.bom.gov.au/fwo/IDQ60801/IDQ60801.94388.json